Time;durP1;ratioP1;P1;durP2;ratioP2;P2;SDS_P1;SDS_P2;PMS_P1;PMS_P2;Temp;Humidity;BMP_temperature;BMP_pressure;BME280_temperature;BME280_humidity;BME280_pressure;Samples;Min_cycle;Max_cycle;Signal;HPM_P1;HPM_P2
2021/11/16 00:01:27;;;;;;;19.53;15.03;;;7.60;1.00;;;;;;5030794;28;20267;-82
2021/11/16 00:03:54;;;;;;;18.97;13.20;;;7.60;1.00;;;;;;5033647;28;20209;-82
2021/11/16 00:06:22;;;;;;;23.60;13.87;;;7.50;1.00;;;;;;5031538;28;20203;-83
2021/11/16 00:08:48;;;;;;;18.53;14.23;;;9.40;1.00;;;;;;5042193;28;20190;-83
2021/11/16 00:11:14;;;;;;;20.27;14.27;;;7.50;1.00;;;;;;5033334;28;20183;-83
2021/11/16 00:13:40;;;;;;;18.57;13.03;;;7.50;1.00;;;;;;5032696;28;20207;-83
2021/11/16 00:16:05;;;;;;;16.33;13.60;;;8.50;1.00;;;;;;5033661;28;20627;-82
2021/11/16 00:18:32;;;;;;;20.13;13.90;;;7.50;1.00;;;;;;5033538;28;20253;-83
2021/11/16 00:20:58;;;;;;;24.03;14.50;;;7.50;1.00;;;;;;5028924;28;20253;-83
2021/11/16 00:23:32;;;;;;;20.10;14.53;;;7.60;1.00;;;;;;5033509;28;20193;-83
2021/11/16 00:26:01;;;;;;;20.50;14.77;;;7.50;1.00;;;;;;5036855;28;20183;-83
2021/11/16 00:28:26;;;;;;;16.57;13.37;;;9.80;1.00;;;;;;5036670;28;20196;-83
2021/11/16 00:30:55;;;;;;;19.90;15.03;;;7.50;1.00;;;;;;5040084;28;20233;-83
2021/11/16 00:33:22;;;;;;;17.30;13.10;;;7.60;1.00;;;;;;5035068;28;20319;-83
2021/11/16 00:35:49;;;;;;;19.67;14.57;;;7.60;1.00;;;;;;5033361;28;20225;-83
2021/11/16 00:38:16;;;;;;;20.37;14.37;;;7.50;1.00;;;;;;5037543;28;20210;-83
2021/11/16 00:40:43;;;;;;;18.77;14.90;;;10.60;1.00;;;;;;5033532;28;20190;-83
2021/11/16 00:43:09;;;;;;;18.03;13.83;;;;;;;;;;5036091;28;20249;-83
2021/11/16 00:45:41;;;;;;;21.87;14.90;;;7.50;1.00;;;;;;5035839;28;20188;-83
2021/11/16 00:48:07;;;;;;;17.40;13.83;;;7.70;1.00;;;;;;5028371;28;20262;-83
2021/11/16 00:50:36;;;;;;;19.40;14.53;;;7.40;1.00;;;;;;5036101;28;20192;-83
2021/11/16 00:53:02;;;;;;;20.33;15.20;;;7.50;1.00;;;;;;5037881;28;20598;-83
2021/11/16 00:55:28;;;;;;;21.20;16.10;;;7.40;1.00;;;;;;5033799;28;20219;-83
2021/11/16 00:57:54;;;;;;;21.67;14.37;;;;;;;;;;5038616;28;20219;-83
2021/11/16 01:00:19;;;;;;;21.97;14.50;;;7.40;1.00;;;;;;5033388;28;20182;-83
2021/11/16 01:02:45;;;;;;;18.77;15.47;;;7.40;1.00;;;;;;5037560;28;20203;-82
2021/11/16 01:05:12;;;;;;;19.47;14.83;;;7.50;1.00;;;;;;5040689;28;20196;-83
2021/11/16 01:07:40;;;;;;;18.57;14.17;;;7.40;1.00;;;;;;5043601;28;20211;-83
2021/11/16 01:10:08;;;;;;;21.33;15.80;;;7.40;1.00;;;;;;5039423;28;20202;-83
2021/11/16 01:12:34;;;;;;;27.60;15.37;;;7.40;1.00;;;;;;5041435;28;20202;-83
2021/11/16 01:15:00;;;;;;;22.83;15.07;;;8.50;1.00;;;;;;5038105;28;20212;-83
2021/11/16 01:17:26;;;;;;;21.73;14.73;;;7.50;1.00;;;;;;5035946;28;20211;-82
2021/11/16 01:19:52;;;;;;;19.27;16.03;;;7.50;1.00;;;;;;5033410;28;20184;-82
2021/11/16 01:22:18;;;;;;;22.23;15.67;;;7.50;1.00;;;;;;5040999;28;20187;-83
2021/11/16 01:24:45;;;;;;;22.60;15.60;;;7.50;1.00;;;;;;5043275;28;20583;-83
2021/11/16 01:27:14;;;;;;;24.30;16.37;;;7.50;1.00;;;;;;5034203;28;20652;-83
2021/11/16 01:29:41;;;;;;;21.00;15.03;;;8.40;1.00;;;;;;5041863;28;20192;-83
2021/11/16 01:32:15;;;;;;;20.53;15.50;;;7.50;1.00;;;;;;5043902;28;20187;-82
2021/11/16 01:34:46;;;;;;;20.83;15.13;;;7.70;1.00;;;;;;5042780;28;20199;-82
2021/11/16 01:37:14;;;;;;;21.93;14.57;;;7.50;1.00;;;;;;5044266;28;20577;-83
2021/11/16 01:39:40;;;;;;;19.03;14.37;;;7.50;1.00;;;;;;5038452;28;20279;-83
2021/11/16 01:42:05;;;;;;;22.37;15.33;;;7.50;1.00;;;;;;5037372;28;20215;-83
2021/11/16 01:44:31;;;;;;;20.33;15.13;;;7.50;1.00;;;;;;5041379;28;20199;-83
2021/11/16 01:46:57;;;;;;;23.03;15.37;;;7.50;1.00;;;;;;5041811;28;20267;-83
2021/11/16 01:49:23;;;;;;;22.97;15.50;;;7.50;1.00;;;;;;5038656;28;20669;-83
2021/11/16 01:51:49;;;;;;;19.47;15.00;;;7.60;1.00;;;;;;5041670;28;20190;-81
2021/11/16 01:54:14;;;;;;;18.97;15.17;;;7.40;1.00;;;;;;5036700;28;20203;-81
2021/11/16 01:56:43;;;;;;;23.17;14.83;;;7.60;1.00;;;;;;5041144;28;20222;-82
2021/11/16 01:59:09;;;;;;;23.17;15.20;;;7.50;1.00;;;;;;5053961;28;20195;-81
2021/11/16 02:01:36;;;;;;;21.37;14.70;;;7.70;1.00;;;;;;5044073;28;20191;-82
2021/11/16 02:04:04;;;;;;;22.50;14.77;;;7.60;1.00;;;;;;5041078;28;20187;-82
2021/11/16 02:06:34;;;;;;;22.83;15.60;;;7.50;1.00;;;;;;5037783;28;20222;-82
2021/11/16 02:09:02;;;;;;;21.30;15.17;;;7.50;1.00;;;;;;5044709;28;20297;-82
2021/11/16 02:11:29;;;;;;;20.97;15.87;;;7.50;1.00;;;;;;5027799;28;20198;-82
2021/11/16 02:13:55;;;;;;;19.83;14.97;;;7.50;1.00;;;;;;5035472;28;20211;-82
2021/11/16 02:16:22;;;;;;;20.43;14.87;;;;;;;;;;5040572;28;20203;-82
2021/11/16 02:18:47;;;;;;;18.33;15.00;;;7.40;1.00;;;;;;5035571;28;20198;-82
2021/11/16 02:21:14;;;;;;;20.73;15.53;;;9.70;1.00;;;;;;5035048;28;20266;-82
2021/11/16 02:23:41;;;;;;;25.47;16.20;;;7.40;1.00;;;;;;5035012;28;20664;-82
2021/11/16 02:26:08;;;;;;;24.10;15.70;;;10.00;1.00;;;;;;5019934;28;20188;-82
2021/11/16 02:28:35;;;;;;;25.27;15.57;;;;;;;;;;5039378;28;20195;-82
2021/11/16 02:31:01;;;;;;;23.90;15.30;;;7.40;1.00;;;;;;5036447;28;20215;-83
2021/11/16 02:33:27;;;;;;;21.80;15.40;;;7.40;1.00;;;;;;5033257;28;20249;-83
2021/11/16 02:35:53;;;;;;;20.57;14.53;;;7.40;1.00;;;;;;5033955;28;20251;-82
2021/11/16 02:38:19;;;;;;;18.20;14.23;;;7.60;1.00;;;;;;5036352;28;20253;-83
2021/11/16 02:40:46;;;;;;;20.97;15.50;;;7.30;1.00;;;;;;5035856;28;20199;-83
2021/11/16 02:43:12;;;;;;;22.07;13.60;;;7.40;1.00;;;;;;5038041;28;20194;-83
2021/11/16 02:45:38;;;;;;;19.60;14.03;;;7.30;1.00;;;;;;5035682;28;20245;-83
2021/11/16 02:48:13;;;;;;;21.63;16.00;;;7.30;1.00;;;;;;5030302;28;20192;-83
2021/11/16 02:50:48;;;;;;;20.77;15.37;;;7.20;1.00;;;;;;5040109;28;20218;-83
2021/11/16 02:53:14;;;;;;;20.13;14.03;;;7.30;1.00;;;;;;5037754;28;20241;-83
2021/11/16 02:55:40;;;;;;;17.70;14.13;;;9.30;1.00;;;;;;5031625;28;20196;-84
2021/11/16 02:58:06;;;;;;;17.03;14.43;;;7.60;1.00;;;;;;5037367;28;20215;-83
2021/11/16 03:00:34;;;;;;;25.53;14.47;;;7.50;1.00;;;;;;5038863;28;20188;-83
2021/11/16 03:03:00;;;;;;;20.53;14.50;;;7.40;1.00;;;;;;5033276;28;20222;-83
2021/11/16 03:05:33;;;;;;;17.37;13.53;;;7.40;1.00;;;;;;5034853;28;20192;-83
2021/11/16 03:07:59;;;;;;;20.47;15.23;;;7.40;1.00;;;;;;5033398;28;20211;-83
2021/11/16 03:10:29;;;;;;;21.63;14.77;;;7.40;1.00;;;;;;5038273;28;20216;-83
2021/11/16 03:12:55;;;;;;;26.20;15.43;;;7.40;1.00;;;;;;5033844;28;20195;-83
2021/11/16 03:15:21;;;;;;;19.33;14.93;;;9.70;1.00;;;;;;5039330;28;20273;-83
2021/11/16 03:17:47;;;;;;;19.37;15.53;;;7.30;1.00;;;;;;5019766;28;20260;-84
2021/11/16 03:20:15;;;;;;;23.10;15.53;;;7.30;1.00;;;;;;5039516;28;20236;-83
2021/11/16 03:22:48;;;;;;;22.90;14.30;;;7.30;1.00;;;;;;5038278;28;20655;-83
2021/11/16 03:25:14;;;;;;;16.20;13.87;;;7.20;1.00;;;;;;5036156;28;20191;-83
2021/11/16 03:27:42;;;;;;;21.20;14.77;;;7.30;1.00;;;;;;5033399;28;20214;-83
2021/11/16 03:30:09;;;;;;;19.17;15.33;;;7.30;1.00;;;;;;5035844;28;20187;-83
2021/11/16 03:32:35;;;;;;;21.77;14.83;;;7.40;1.00;;;;;;5032268;28;20196;-83
2021/11/16 03:35:04;;;;;;;17.37;14.10;;;7.20;1.00;;;;;;5034904;28;20191;-83
2021/11/16 03:37:37;;;;;;;22.83;14.67;;;9.60;1.00;;;;;;5037914;28;20595;-83
2021/11/16 03:40:04;;;;;;;25.20;16.00;;;7.30;1.00;;;;;;5028688;28;20600;-83
2021/11/16 03:42:30;;;;;;;18.33;14.40;;;7.20;1.00;;;;;;5035055;28;20195;-83
2021/11/16 03:44:56;;;;;;;21.67;14.93;;;7.30;1.00;;;;;;5032500;28;20191;-84
2021/11/16 03:47:21;;;;;;;22.03;14.93;;;7.20;1.00;;;;;;5037891;28;20191;-84
2021/11/16 03:49:48;;;;;;;19.47;14.83;;;8.00;1.00;;;;;;5038913;28;20195;-84
2021/11/16 03:52:13;;;;;;;21.30;15.50;;;7.40;1.00;;;;;;5037665;28;20635;-83
2021/11/16 03:54:39;;;;;;;19.77;15.07;;;7.40;1.00;;;;;;5028620;28;20286;-83
2021/11/16 03:57:06;;;;;;;18.27;15.13;;;;;;;;;;5031709;28;20586;-84
2021/11/16 03:59:32;;;;;;;19.33;15.43;;;7.40;1.00;;;;;;5026583;28;20198;-83
2021/11/16 04:01:58;;;;;;;19.90;15.53;;;7.30;1.00;;;;;;5032774;28;20191;-83
2021/11/16 04:04:25;;;;;;;18.53;13.80;;;8.60;1.00;;;;;;5037983;28;20241;-83
2021/11/16 04:06:51;;;;;;;21.20;15.60;;;7.30;1.00;;;;;;5038569;28;20216;-83
2021/11/16 04:09:17;;;;;;;22.77;15.40;;;9.10;1.00;;;;;;5039574;28;20286;-84
2021/11/16 04:11:42;;;;;;;20.30;13.77;;;7.40;1.00;;;;;;5037109;28;20203;-83
2021/11/16 04:14:08;;;;;;;26.97;15.23;;;7.20;1.00;;;;;;5037241;28;20218;-85
2021/11/16 04:16:34;;;;;;;22.70;15.50;;;7.20;1.00;;;;;;5033762;28;20202;-84
2021/11/16 04:18:59;;;;;;;20.63;15.37;;;7.40;1.00;;;;;;5034302;28;20621;-84
2021/11/16 04:21:25;;;;;;;22.93;15.30;;;9.20;1.00;;;;;;5037015;28;20183;-84
2021/11/16 04:23:51;;;;;;;19.10;15.03;;;7.30;1.00;;;;;;5032844;28;20180;-84
2021/11/16 04:26:17;;;;;;;20.40;15.00;;;8.90;1.00;;;;;;5027041;28;20180;-84
2021/11/16 04:28:43;;;;;;;21.57;15.93;;;7.20;1.00;;;;;;5029267;28;20303;-84
2021/11/16 04:31:08;;;;;;;25.03;15.47;;;7.30;1.00;;;;;;5030931;28;20187;-84
2021/11/16 04:33:35;;;;;;;27.03;15.57;;;;;;;;;;5033166;28;20184;-84
2021/11/16 04:36:01;;;;;;;24.87;15.07;;;7.30;1.00;;;;;;5040532;28;20183;-84
2021/11/16 04:38:28;;;;;;;25.03;15.97;;;;;;;;;;5029678;28;20217;-84
2021/11/16 04:40:57;;;;;;;20.23;14.27;;;7.30;1.00;;;;;;5038324;28;20206;-84
2021/11/16 04:43:26;;;;;;;23.87;15.60;;;8.40;1.00;;;;;;5041482;28;20187;-84
2021/11/16 04:45:55;;;;;;;23.47;15.73;;;7.50;1.00;;;;;;5036255;28;20194;-84
2021/11/16 04:48:54;;;;;;;19.03;14.37;;;7.30;1.00;;;;;;5032256;28;20190;-84
2021/11/16 05:04:38;;;;;;;23.60;16.03;;;7.30;1.00;;;;;;5037368;28;20574;-84
2021/11/16 05:07:17;;;;;;;19.77;14.70;;;7.30;1.00;;;;;;5039253;28;20694;-83
2021/11/16 05:09:50;;;;;;;22.70;15.17;;;8.50;1.00;;;;;;5031166;28;20198;-83
2021/11/16 05:12:17;;;;;;;21.93;15.63;;;7.30;1.00;;;;;;5038496;28;20245;-84
2021/11/16 05:14:43;;;;;;;21.40;15.17;;;7.30;1.00;;;;;;5039013;28;20261;-83
2021/11/16 05:17:09;;;;;;;22.67;15.80;;;7.10;1.00;;;;;;5036774;28;20203;-83
2021/11/16 05:19:35;;;;;;;20.33;15.47;;;9.10;1.00;;;;;;5038418;28;20189;-83
2021/11/16 05:22:01;;;;;;;20.57;14.70;;;;;;;;;;5034733;28;20558;-83
2021/11/16 05:24:27;;;;;;;22.20;14.97;;;7.30;1.00;;;;;;5038683;28;20783;-83
2021/11/16 05:26:53;;;;;;;17.37;14.60;;;;;;;;;;5039957;28;20221;-83
2021/11/16 05:29:19;;;;;;;20.17;14.87;;;7.30;1.00;;;;;;5039736;28;20219;-83
2021/11/16 05:31:45;;;;;;;23.37;14.73;;;7.30;1.00;;;;;;5037514;28;20196;-83
2021/11/16 05:34:11;;;;;;;22.30;15.17;;;;;;;;;;5039528;28;20622;-83
2021/11/16 05:36:37;;;;;;;16.83;13.77;;;7.40;1.00;;;;;;5036531;28;20215;-84
2021/11/16 05:39:04;;;;;;;21.20;14.67;;;7.20;1.00;;;;;;5035694;28;20192;-84
2021/11/16 05:41:30;;;;;;;18.37;15.03;;;10.00;1.00;;;;;;5034890;28;20613;-84
2021/11/16 05:43:57;;;;;;;22.23;14.10;;;;;;;;;;5034111;28;20190;-84
2021/11/16 05:46:23;;;;;;;22.87;15.13;;;7.30;1.00;;;;;;5042313;28;20218;-84
2021/11/16 05:48:50;;;;;;;25.07;15.43;;;7.20;1.00;;;;;;5041118;28;20187;-84
2021/11/16 05:51:17;;;;;;;21.40;15.40;;;8.70;1.00;;;;;;5026634;28;21030;-84
2021/11/16 05:53:52;;;;;;;18.60;14.70;;;7.30;1.00;;;;;;5026700;28;20655;-84
2021/11/16 05:56:20;;;;;;;19.53;13.90;;;7.20;1.00;;;;;;5031147;28;20190;-84
2021/11/16 05:58:47;;;;;;;18.40;14.87;;;8.00;1.00;;;;;;5034840;28;20195;-84
2021/11/16 06:01:12;;;;;;;18.73;15.03;;;7.30;1.00;;;;;;5033002;28;20211;-83
2021/11/16 06:03:38;;;;;;;17.23;14.00;;;9.30;1.00;;;;;;5040239;28;20667;-83
2021/11/16 06:06:04;;;;;;;18.30;14.03;;;;;;;;;;5037874;28;20210;-83
2021/11/16 06:08:30;;;;;;;24.40;15.27;;;7.10;1.00;;;;;;5040294;28;20198;-83
2021/11/16 06:10:57;;;;;;;20.97;14.30;;;7.20;1.00;;;;;;5036925;28;20199;-83
2021/11/16 06:13:23;;;;;;;21.60;15.07;;;7.30;1.00;;;;;;5052184;28;20218;-83
2021/11/16 06:15:49;;;;;;;18.47;14.53;;;9.70;1.00;;;;;;5041461;28;20195;-83
2021/11/16 06:18:15;;;;;;;23.20;15.43;;;7.90;1.00;;;;;;5034988;28;20307;-83
2021/11/16 06:20:43;;;;;;;20.33;13.60;;;7.40;1.00;;;;;;5033534;28;20191;-83
2021/11/16 06:23:11;;;;;;;18.73;14.33;;;7.30;1.00;;;;;;5031990;28;20187;-83
2021/11/16 06:25:38;;;;;;;23.53;15.73;;;7.30;1.00;;;;;;5038103;28;20691;-83
2021/11/16 06:28:04;;;;;;;26.37;14.37;;;7.20;1.00;;;;;;5038861;28;20198;-83
2021/11/16 06:30:30;;;;;;;22.60;14.87;;;9.10;1.00;;;;;;5040023;28;20187;-83
2021/11/16 06:32:56;;;;;;;22.73;15.87;;;7.20;1.00;;;;;;5033658;28;20187;-83
2021/11/16 06:35:22;;;;;;;19.53;14.10;;;;;;;;;;5036714;28;20198;-83
2021/11/16 06:37:52;;;;;;;20.93;14.30;;;7.30;1.00;;;;;;5033987;28;20227;-83
2021/11/16 06:40:18;;;;;;;20.60;13.33;;;7.20;1.00;;;;;;5035466;28;20184;-83
2021/11/16 06:42:45;;;;;;;21.23;14.13;;;7.20;1.00;;;;;;5033611;28;20188;-83
2021/11/16 06:45:12;;;;;;;21.47;15.17;;;;;;;;;;5039142;28;20203;-83
2021/11/16 06:47:38;;;;;;;24.20;14.13;;;7.20;1.00;;;;;;5032776;28;20192;-83
2021/11/16 06:50:05;;;;;;;18.30;14.77;;;7.10;1.00;;;;;;5030957;28;20568;-83
2021/11/16 06:52:34;;;;;;;19.90;14.10;;;7.20;1.00;;;;;;5032107;28;20648;-84
2021/11/16 06:55:01;;;;;;;21.73;16.27;;;7.20;1.00;;;;;;5030472;28;20196;-83
2021/11/16 06:57:29;;;;;;;19.27;13.07;;;;;;;;;;5033628;28;20348;-83
2021/11/16 06:59:55;;;;;;;23.80;14.43;;;;;;;;;;5042654;28;20214;-83
2021/11/16 07:02:25;;;;;;;20.17;13.97;;;7.20;1.00;;;;;;5031960;28;20179;-83
2021/11/16 07:04:51;;;;;;;22.53;14.37;;;7.60;1.00;;;;;;5032295;28;20188;-84
2021/11/16 07:07:17;;;;;;;22.43;14.83;;;7.30;1.00;;;;;;5036822;28;20709;-83
2021/11/16 07:09:43;;;;;;;23.27;15.47;;;7.30;1.00;;;;;;5031726;28;20272;-84
2021/11/16 07:12:19;;;;;;;20.93;15.80;;;7.30;1.00;;;;;;5038468;28;20188;-84
2021/11/16 07:14:45;;;;;;;19.13;14.17;;;;;;;;;;5038323;28;20651;-84
2021/11/16 07:17:16;;;;;;;19.43;14.70;;;7.30;1.00;;;;;;5038363;28;20240;-84
2021/11/16 07:19:45;;;;;;;17.83;13.50;;;7.30;1.00;;;;;;5036282;28;20282;-82
2021/11/16 07:22:41;;;;;;;20.70;14.57;;;7.80;1.00;;;;;;5039862;28;20202;-82
2021/11/16 07:25:12;;;;;;;19.20;13.33;;;7.20;1.00;;;;;;5018618;28;20664;-85
2021/11/16 07:27:46;;;;;;;20.43;14.60;;;7.20;1.00;;;;;;5036486;28;20196;-83
2021/11/16 07:30:15;;;;;;;16.60;12.77;;;7.30;1.00;;;;;;5035269;28;20198;-82
2021/11/16 07:33:14;;;;;;;22.13;13.77;;;7.20;1.00;;;;;;5034110;28;20184;-82
2021/11/16 07:35:43;;;;;;;18.57;12.83;;;7.20;1.00;;;;;;5031517;28;20236;-82
2021/11/16 07:38:13;;;;;;;17.87;13.37;;;7.20;1.00;;;;;;5036571;28;20211;-83
2021/11/16 07:40:47;;;;;;;20.77;13.57;;;7.20;1.00;;;;;;5031879;28;20183;-83
2021/11/16 07:43:19;;;;;;;18.80;14.47;;;7.30;1.00;;;;;;5036591;28;20186;-82
2021/11/16 07:45:49;;;;;;;20.47;14.43;;;7.30;1.00;;;;;;5024796;28;20299;-81
2021/11/16 07:48:20;;;;;;;17.47;13.43;;;7.30;1.00;;;;;;5010747;28;20188;-81
2021/11/16 07:50:52;;;;;;;17.03;12.87;;;7.30;1.00;;;;;;5035705;28;20249;-81
2021/11/16 07:53:27;;;;;;;18.33;13.93;;;7.30;1.00;;;;;;5032009;28;20195;-81
2021/11/16 07:55:55;;;;;;;21.23;13.23;;;7.30;1.00;;;;;;5035283;28;20197;-81
2021/11/16 07:58:24;;;;;;;15.70;12.70;;;7.30;1.00;;;;;;5043063;28;20209;-82
2021/11/16 08:00:50;;;;;;;23.43;14.73;;;7.30;1.00;;;;;;5037530;28;20190;-84
2021/11/16 08:03:20;;;;;;;16.43;12.47;;;7.30;1.00;;;;;;5032186;28;20592;-80
2021/11/16 08:05:58;;;;;;;17.33;13.13;;;;;;;;;;5034146;28;20187;-80
2021/11/16 08:11:14;;;;;;;17.60;13.27;;;7.30;1.00;;;;;;5040652;28;20198;-87
2021/11/16 08:14:13;;;;;;;19.23;13.60;;;7.30;1.00;;;;;;5037244;28;20281;-87
2021/11/16 08:17:13;;;;;;;17.70;12.67;;;7.30;1.00;;;;;;5039215;28;20195;-87
2021/11/16 08:19:40;;;;;;;17.57;12.80;;;7.40;1.00;;;;;;4986861;28;20206;-87
2021/11/16 08:22:18;;;;;;;16.13;12.80;;;7.40;1.00;;;;;;5035324;28;20266;-87
2021/11/16 08:24:48;;;;;;;20.90;12.57;;;7.40;1.00;;;;;;5028483;28;20188;-87
2021/11/16 08:27:21;;;;;;;17.27;12.77;;;8.00;1.00;;;;;;5041482;28;20282;-87
2021/11/16 08:29:51;;;;;;;15.33;12.73;;;7.80;1.00;;;;;;5055644;28;20297;-85
2021/11/16 08:32:22;;;;;;;17.37;12.73;;;7.40;1.00;;;;;;5036177;28;20282;-85
2021/11/16 08:34:54;;;;;;;17.53;12.83;;;7.40;1.00;;;;;;5040572;28;20731;-86
2021/11/16 08:37:22;;;;;;;15.43;12.80;;;8.20;1.00;;;;;;5039708;28;20655;-87
2021/11/16 08:39:48;;;;;;;18.77;12.80;;;;;;;;;;5028696;28;20646;-86
2021/11/16 08:42:27;;;;;;;14.97;12.33;;;7.50;1.00;;;;;;5035965;28;20194;-87
2021/11/16 08:45:00;;;;;;;20.80;13.20;;;7.50;1.00;;;;;;5032590;28;20199;-86
2021/11/16 08:47:32;;;;;;;15.27;12.53;;;7.50;1.00;;;;;;5032008;28;20293;-87
2021/11/16 08:49:58;;;;;;;16.83;12.73;;;7.50;1.00;;;;;;5034620;28;20278;-88
2021/11/16 08:52:28;;;;;;;17.73;13.00;;;7.50;1.00;;;;;;5032653;28;20249;-88
2021/11/16 08:55:18;;;;;;;16.27;12.73;;;7.60;1.00;;;;;;5041640;28;20191;-88
2021/11/16 08:57:49;;;;;;;15.77;11.87;;;7.50;1.00;;;;;;5012317;28;20238;-88
2021/11/16 09:00:23;;;;;;;16.23;11.83;;;7.50;1.00;;;;;;5002639;28;20254;-88
2021/11/16 09:02:50;;;;;;;16.50;11.90;;;7.50;1.00;;;;;;5014350;28;20293;-88
2021/11/16 09:05:18;;;;;;;17.73;12.83;;;7.40;1.00;;;;;;4998591;28;20206;-88
2021/11/16 09:08:03;;;;;;;18.57;12.80;;;7.40;1.00;;;;;;4991149;28;20239;-88
2021/11/16 09:10:48;;;;;;;14.40;10.90;;;7.40;1.00;;;;;;4995246;28;20300;-88
2021/11/16 09:13:20;;;;;;;14.90;12.27;;;7.40;1.00;;;;;;5019770;28;20223;-88
2021/11/16 09:15:53;;;;;;;14.43;12.37;;;7.40;1.00;;;;;;5005522;28;20211;-88
2021/11/16 09:18:36;;;;;;;13.57;11.37;;;7.40;1.00;;;;;;4989674;28;20220;-88
2021/11/16 09:21:09;;;;;;;17.03;12.50;;;7.40;1.00;;;;;;5001790;28;20223;-89
2021/11/16 09:23:37;;;;;;;15.97;12.60;;;7.40;1.00;;;;;;5004414;28;20188;-88
2021/11/16 09:26:18;;;;;;;15.83;12.63;;;7.60;1.00;;;;;;5004194;28;20185;-88
2021/11/16 09:28:59;;;;;;;18.67;12.80;;;7.50;1.00;;;;;;4999787;28;20203;-87
2021/11/16 09:31:33;;;;;;;16.50;12.10;;;7.40;1.00;;;;;;4991613;28;20196;-88
2021/11/16 09:34:22;;;;;;;14.83;11.43;;;7.60;1.00;;;;;;4990690;28;20224;-88
2021/11/16 09:36:57;;;;;;;16.43;12.23;;;7.60;1.00;;;;;;5034385;28;20302;-87
2021/11/16 09:39:32;;;;;;;16.00;12.47;;;7.50;1.00;;;;;;5038915;28;20183;-88
2021/11/16 09:42:07;;;;;;;17.00;12.33;;;7.60;1.00;;;;;;5030127;28;20194;-87
2021/11/16 09:44:42;;;;;;;16.63;11.93;;;7.60;1.00;;;;;;5041710;28;20186;-87
2021/11/16 09:47:20;;;;;;;15.30;11.53;;;7.80;1.00;;;;;;5038474;28;20191;-87
2021/11/16 09:49:55;;;;;;;16.43;12.70;;;7.70;1.00;;;;;;5037771;28;20187;-87
2021/11/16 09:52:43;;;;;;;16.57;12.23;;;9.00;1.00;;;;;;5028079;28;20198;-87
2021/11/16 09:55:10;;;;;;;13.87;11.40;;;7.70;1.00;;;;;;5038375;28;20195;-87
2021/11/16 09:57:40;;;;;;;16.77;12.40;;;7.60;1.00;;;;;;5039760;28;20226;-86
2021/11/16 10:00:15;;;;;;;15.57;11.57;;;7.70;1.00;;;;;;5032141;28;20187;-87
2021/11/16 10:03:14;;;;;;;18.43;12.33;;;7.70;1.00;;;;;;5035776;28;20187;-86
2021/11/16 10:05:47;;;;;;;20.67;12.43;;;7.70;1.00;;;;;;5028202;28;20206;-86
2021/11/16 10:08:15;;;;;;;15.73;11.80;;;7.70;1.00;;;;;;5034933;28;20531;-87
2021/11/16 10:10:43;;;;;;;15.03;12.23;;;8.10;1.00;;;;;;5034284;28;20199;-85
2021/11/16 10:13:15;;;;;;;16.23;12.37;;;7.60;1.00;;;;;;5039503;28;20187;-86
2021/11/16 10:15:47;;;;;;;13.50;11.53;;;7.80;1.00;;;;;;5030125;28;20192;-85
2021/11/16 10:18:15;;;;;;;16.57;12.97;;;7.80;1.00;;;;;;5037455;28;20211;-86
2021/11/16 10:20:43;;;;;;;14.97;11.57;;;7.90;1.00;;;;;;5038633;28;20621;-86
2021/11/16 10:23:12;;;;;;;18.37;12.07;;;7.80;1.00;;;;;;5040327;28;20208;-86
2021/11/16 10:25:43;;;;;;;18.90;13.20;;;7.80;1.00;;;;;;5036945;28;20658;-84
2021/11/16 10:28:14;;;;;;;16.50;11.67;;;7.80;1.00;;;;;;5036219;28;20230;-84
2021/11/16 10:30:44;;;;;;;17.00;11.63;;;7.70;1.00;;;;;;5035473;28;20195;-85
2021/11/16 10:33:17;;;;;;;17.43;12.07;;;7.70;1.00;;;;;;5037912;28;20183;-84
2021/11/16 10:35:48;;;;;;;13.33;11.70;;;7.70;1.00;;;;;;5031323;28;20191;-85
2021/11/16 10:38:23;;;;;;;15.07;12.77;;;7.80;1.00;;;;;;5040571;28;20273;-85
2021/11/16 10:40:50;;;;;;;18.70;12.00;;;7.80;1.00;;;;;;5026430;28;20640;-85
2021/11/16 10:43:16;;;;;;;17.63;12.00;;;7.80;1.00;;;;;;5043124;28;20176;-84
2021/11/16 10:45:45;;;;;;;13.27;11.87;;;7.80;1.00;;;;;;5039953;28;20188;-85
2021/11/16 10:48:15;;;;;;;16.83;12.33;;;7.80;1.00;;;;;;5033955;28;20188;-85
2021/11/16 10:50:43;;;;;;;16.13;12.03;;;7.80;1.00;;;;;;5033265;28;20562;-85
2021/11/16 10:53:10;;;;;;;14.87;11.73;;;;;;;;;;5034570;28;20199;-85
2021/11/16 10:55:44;;;;;;;14.67;11.80;;;7.70;1.00;;;;;;5035855;28;20191;-85
2021/11/16 10:58:27;;;;;;;17.00;11.90;;;8.70;1.00;;;;;;5040724;28;20229;-85
2021/11/16 11:00:58;;;;;;;19.00;12.90;;;7.70;1.00;;;;;;5023519;28;20191;-86
2021/11/16 11:03:38;;;;;;;15.20;11.77;;;7.70;1.00;;;;;;5043310;28;20293;-85
2021/11/16 11:06:07;;;;;;;14.57;11.50;;;7.70;1.00;;;;;;5044782;28;20206;-85
2021/11/16 11:08:57;;;;;;;16.10;12.27;;;7.70;1.00;;;;;;5044144;28;20209;-86
2021/11/16 11:11:41;;;;;;;14.97;11.47;;;7.70;1.00;;;;;;5019670;28;20194;-85
2021/11/16 11:14:12;;;;;;;19.67;13.37;;;7.70;1.00;;;;;;5025752;28;20192;-85
2021/11/16 11:16:49;;;;;;;20.60;12.77;;;7.70;1.00;;;;;;5036920;28;20290;-85
2021/11/16 11:19:27;;;;;;;15.83;12.23;;;7.70;1.00;;;;;;5034578;28;20581;-85
2021/11/16 11:24:59;;;;;;;15.60;11.80;;;7.70;1.00;;;;;;5036971;28;20186;-85
2021/11/16 11:27:31;;;;;;;20.40;12.37;;;7.60;1.00;;;;;;5033404;28;20268;-85
2021/11/16 11:30:00;;;;;;;16.40;12.93;;;8.10;1.00;;;;;;5005299;28;20208;-85
2021/11/16 11:32:31;;;;;;;18.97;13.40;;;7.70;1.00;;;;;;5038248;28;20575;-85
2021/11/16 11:35:00;;;;;;;16.70;12.70;;;7.70;1.00;;;;;;5031436;28;20203;-85
2021/11/16 11:37:32;;;;;;;17.47;12.40;;;7.80;1.00;;;;;;5037499;28;20306;-85
2021/11/16 11:40:10;;;;;;;12.07;10.67;;;7.80;1.00;;;;;;5042282;28;20234;-86
2021/11/16 11:42:51;;;;;;;16.33;12.60;;;7.80;1.00;;;;;;5037522;28;20214;-86
2021/11/16 11:45:31;;;;;;;16.23;12.20;;;7.80;1.00;;;;;;5038954;28;20190;-85
2021/11/16 11:48:02;;;;;;;15.97;13.13;;;7.80;1.00;;;;;;5054822;28;20280;-85
2021/11/16 11:50:37;;;;;;;17.37;12.87;;;7.80;1.00;;;;;;5039391;28;20628;-85
2021/11/16 11:53:09;;;;;;;16.20;12.33;;;7.80;1.00;;;;;;5036001;28;20203;-85
2021/11/16 11:55:38;;;;;;;18.10;13.47;;;7.80;1.00;;;;;;5031390;28;20190;-85
2021/11/16 11:58:05;;;;;;;16.13;13.23;;;7.70;1.00;;;;;;5041980;28;20222;-85
2021/11/16 12:00:33;;;;;;;16.10;12.53;;;7.70;1.00;;;;;;5026629;28;20268;-85
2021/11/16 12:02:59;;;;;;;22.17;13.00;;;7.60;1.00;;;;;;5031392;28;20195;-85
2021/11/16 12:05:27;;;;;;;18.00;13.70;;;7.60;1.00;;;;;;5038940;28;20191;-84
2021/11/16 12:07:54;;;;;;;16.10;12.60;;;7.60;1.00;;;;;;5037708;28;20211;-86
2021/11/16 12:10:23;;;;;;;15.93;13.00;;;7.60;1.00;;;;;;5033399;28;20282;-86
2021/11/16 12:12:50;;;;;;;20.20;13.70;;;7.60;1.00;;;;;;5040886;28;20547;-84
2021/11/16 12:15:31;;;;;;;22.63;13.80;;;7.70;1.00;;;;;;5022790;28;20263;-85
2021/11/16 12:18:00;;;;;;;28.20;15.43;;;8.00;1.00;;;;;;5031968;28;20295;-85
2021/11/16 12:20:42;;;;;;;21.03;13.03;;;8.00;1.00;;;;;;5040006;28;20194;-85
2021/11/16 12:23:11;;;;;;;17.90;13.07;;;7.80;1.00;;;;;;5033761;28;20194;-84
2021/11/16 12:25:38;;;;;;;18.00;13.23;;;7.80;1.00;;;;;;5054122;28;20191;-85
2021/11/16 12:28:28;;;;;;;18.40;13.03;;;7.80;1.00;;;;;;5034759;28;20198;-85
2021/11/16 12:30:56;;;;;;;21.10;13.50;;;7.80;1.00;;;;;;5036859;28;20284;-84
2021/11/16 12:33:43;;;;;;;18.50;13.93;;;8.50;1.00;;;;;;5034635;28;20195;-84
2021/11/16 12:36:12;;;;;;;21.40;13.90;;;7.70;1.00;;;;;;5028027;28;20190;-85
2021/11/16 12:38:45;;;;;;;17.30;13.50;;;7.60;1.00;;;;;;5028757;28;20238;-85
2021/11/16 12:41:32;;;;;;;21.00;14.40;;;7.60;1.00;;;;;;5020688;28;20203;-84
2021/11/16 12:44:00;;;;;;;19.37;14.17;;;7.60;1.00;;;;;;5049763;28;20218;-84
2021/11/16 12:46:28;;;;;;;18.70;13.50;;;7.60;1.00;;;;;;5039277;28;20215;-85
2021/11/16 12:48:56;;;;;;;21.77;15.03;;;7.60;1.00;;;;;;5040477;28;20201;-84
2021/11/16 12:51:37;;;;;;;19.23;13.03;;;7.60;1.00;;;;;;5035874;28;20718;-84
2021/11/16 12:54:18;;;;;;;16.90;13.57;;;7.60;1.00;;;;;;5039552;28;20639;-85
2021/11/16 12:56:47;;;;;;;18.87;13.93;;;9.80;1.00;;;;;;5043497;28;20202;-85
2021/11/16 12:59:18;;;;;;;20.80;14.87;;;8.80;1.00;;;;;;5045261;28;20188;-84
2021/11/16 13:02:02;;;;;;;19.00;13.93;;;7.50;1.00;;;;;;5038661;28;20191;-84
2021/11/16 13:04:37;;;;;;;16.00;14.27;;;7.60;1.00;;;;;;5032083;28;20199;-84
2021/11/16 13:07:25;;;;;;;20.97;14.20;;;7.60;1.00;;;;;;5040936;28;20225;-84
2021/11/16 13:09:53;;;;;;;17.57;13.93;;;7.50;1.00;;;;;;5033135;28;20199;-84
2021/11/16 13:13:13;;;;;;;19.90;13.57;;;8.40;1.00;;;;;;5032558;28;20206;-85
2021/11/16 13:15:42;;;;;;;19.20;14.73;;;7.50;1.00;;;;;;4947840;29;20708;-85
2021/11/16 13:18:26;;;;;;;23.17;15.33;;;7.50;1.00;;;;;;4938024;29;20228;-84
2021/11/16 13:21:12;;;;;;;16.73;14.17;;;7.70;1.00;;;;;;4948560;29;20198;-84
2021/11/16 13:23:57;;;;;;;19.43;14.17;;;7.60;1.00;;;;;;4949741;29;20636;-85
2021/11/16 13:26:46;;;;;;;24.13;14.47;;;7.60;1.00;;;;;;4941548;29;20197;-85
2021/11/16 13:29:20;;;;;;;16.67;13.53;;;7.60;1.00;;;;;;4944383;28;20236;-85